createdAt,value
2016-11-23T00:01:09.480Z,0
2016-11-23T00:06:13.574Z,0
2016-11-23T00:11:17.670Z,0
2016-11-23T00:16:22.424Z,0
2016-11-23T00:21:26.520Z,0
2016-11-23T00:26:31.280Z,0
2016-11-23T00:31:35.707Z,0
2016-11-23T00:36:40.129Z,0
2016-11-23T00:41:44.221Z,0
2016-11-23T00:46:48.647Z,0
2016-11-23T00:51:53.096Z,0
2016-11-23T00:56:57.189Z,0
2016-11-23T01:02:01.277Z,0
2016-11-23T01:07:05.698Z,0
2016-11-23T01:12:09.786Z,0
2016-11-23T01:17:14.205Z,0
2016-11-23T01:22:18.297Z,0
2016-11-23T01:27:22.382Z,0
2016-11-23T01:32:26.810Z,0
2016-11-23T01:37:31.231Z,0
2016-11-23T01:42:35.658Z,0
2016-11-23T01:47:39.742Z,0
2016-11-23T01:52:44.178Z,0
2016-11-23T01:57:48.268Z,0
2016-11-23T02:02:53.035Z,0
2016-11-23T02:07:57.133Z,0
2016-11-23T02:13:01.904Z,0
2016-11-23T02:18:06.001Z,0
2016-11-23T02:23:10.424Z,0
2016-11-23T02:28:15.181Z,0
2016-11-23T02:33:19.278Z,0
2016-11-23T02:38:23.705Z,0
2016-11-23T02:43:27.788Z,0
2016-11-23T02:48:31.873Z,0
2016-11-23T02:53:35.967Z,0
2016-11-23T02:58:40.396Z,0
2016-11-23T03:03:44.482Z,0
2016-11-23T03:08:48.570Z,0
2016-11-23T03:13:52.654Z,0
2016-11-23T03:18:57.072Z,0
2016-11-23T03:24:01.500Z,0
2016-11-23T03:29:05.592Z,0
2016-11-23T03:34:09.683Z,0
2016-11-23T03:39:13.774Z,0
2016-11-23T03:44:17.866Z,0
2016-11-23T03:49:21.950Z,0
2016-11-23T03:54:26.044Z,0
2016-11-23T03:59:30.464Z,0
2016-11-23T04:04:35.559Z,0
2016-11-23T04:09:39.978Z,0
2016-11-23T04:14:44.745Z,0
2016-11-23T04:19:48.839Z,0
2016-11-23T04:24:52.926Z,0
2016-11-23T04:29:57.354Z,0
2016-11-23T04:35:01.441Z,0
2016-11-23T04:40:06.204Z,0
2016-11-23T04:45:11.306Z,0
2016-11-23T04:50:15.398Z,0
2016-11-23T04:55:19.490Z,0
2016-11-23T05:00:23.916Z,0
2016-11-23T05:05:28.349Z,0
2016-11-23T05:10:32.437Z,0
2016-11-23T05:15:36.867Z,0
2016-11-23T05:20:40.960Z,0
2016-11-23T05:25:45.050Z,0
2016-11-23T05:30:49.484Z,0
2016-11-23T05:35:53.929Z,0
2016-11-23T05:40:58.037Z,0
2016-11-23T05:46:02.123Z,0
2016-11-23T05:51:06.216Z,0
2016-11-23T05:56:10.646Z,0
2016-11-23T06:01:15.073Z,0
2016-11-23T06:06:19.502Z,0
2016-11-23T06:11:23.596Z,0
2016-11-23T06:16:28.045Z,0
2016-11-23T06:21:32.136Z,0
2016-11-23T06:26:36.276Z,1
2016-11-23T06:31:40.674Z,2
2016-11-23T06:36:44.763Z,0
2016-11-23T06:41:49.188Z,1
2016-11-23T06:46:53.285Z,2
2016-11-23T06:51:57.376Z,3
2016-11-23T06:57:01.469Z,5
2016-11-23T07:02:05.556Z,8
2016-11-23T07:07:09.652Z,9
2016-11-23T07:12:13.744Z,13
2016-11-23T07:17:17.837Z,19
2016-11-23T07:22:21.925Z,23
2016-11-23T07:27:26.351Z,26
2016-11-23T07:32:30.442Z,29
2016-11-23T07:37:34.866Z,37
2016-11-23T07:42:39.623Z,55
2016-11-23T07:47:43.714Z,58
2016-11-23T07:52:47.806Z,60
2016-11-23T07:57:52.235Z,75
2016-11-23T08:02:57.000Z,82
2016-11-23T08:08:01.435Z,87
2016-11-23T08:13:05.523Z,77
2016-11-23T08:18:09.615Z,100
2016-11-23T08:23:13.713Z,135
2016-11-23T08:28:18.144Z,129
2016-11-23T08:33:22.234Z,178
2016-11-23T08:38:26.325Z,199
2016-11-23T08:43:30.764Z,213
2016-11-23T08:48:35.203Z,214
2016-11-23T08:53:39.292Z,217
2016-11-23T08:58:43.723Z,242
2016-11-23T09:03:47.815Z,261
2016-11-23T09:08:52.582Z,262
2016-11-23T09:13:57.017Z,288
2016-11-23T09:19:01.126Z,384
2016-11-23T09:24:05.223Z,413
2016-11-23T09:29:09.761Z,307
2016-11-23T09:34:14.530Z,300
2016-11-23T09:39:18.690Z,292
2016-11-23T09:44:22.792Z,339
2016-11-23T09:49:27.220Z,345
2016-11-23T09:54:31.833Z,328
2016-11-23T09:59:35.940Z,380
2016-11-23T10:04:40.400Z,428
2016-11-23T10:09:44.510Z,408
2016-11-23T10:14:48.823Z,453
2016-11-23T10:19:52.943Z,478
2016-11-23T10:24:57.763Z,471
2016-11-23T10:30:01.866Z,481
2016-11-23T10:35:06.302Z,440
2016-11-23T10:40:10.399Z,452
2016-11-23T10:45:14.832Z,490
2016-11-23T10:50:18.933Z,500
2016-11-23T10:55:23.367Z,586
2016-11-23T11:00:27.468Z,763
2016-11-23T11:05:31.569Z,862
2016-11-23T11:10:36.004Z,832
2016-11-23T11:15:40.434Z,845
2016-11-23T11:20:44.535Z,843
2016-11-23T11:25:48.629Z,834
2016-11-23T11:30:53.495Z,785
2016-11-23T11:35:57.587Z,758
2016-11-23T11:41:01.682Z,795
2016-11-23T11:46:05.775Z,836
2016-11-23T11:51:10.205Z,749
2016-11-23T11:56:17.758Z,770
2016-11-23T12:01:22.186Z,827
2016-11-23T12:06:26.285Z,1062
2016-11-23T12:11:31.057Z,1160
2016-11-23T12:16:35.162Z,1409
2016-11-23T12:21:39.934Z,1286
2016-11-23T12:26:44.392Z,1143
2016-11-23T12:31:48.498Z,814
2016-11-23T12:36:52.929Z,749
2016-11-23T12:41:57.025Z,870
2016-11-23T12:47:01.809Z,1157
2016-11-23T12:52:05.914Z,1050
2016-11-23T12:57:10.018Z,858
2016-11-23T13:02:14.116Z,982
2016-11-23T13:07:18.545Z,857
2016-11-23T13:12:22.675Z,693
2016-11-23T13:17:26.773Z,735
2016-11-23T13:22:31.430Z,780
2016-11-23T13:27:35.531Z,687
2016-11-23T13:32:39.665Z,607
2016-11-23T13:37:43.764Z,502
2016-11-23T13:42:47.858Z,486
2016-11-23T13:47:51.953Z,476
2016-11-23T13:52:56.385Z,462
2016-11-23T13:58:00.480Z,518
2016-11-23T14:03:04.573Z,460
2016-11-23T14:08:08.674Z,370
2016-11-23T14:13:13.124Z,316
2016-11-23T14:18:17.569Z,264
2016-11-23T14:23:21.675Z,215
2016-11-23T14:28:26.119Z,179
2016-11-23T14:33:30.270Z,152
2016-11-23T14:38:34.745Z,140
2016-11-23T14:43:38.844Z,111
2016-11-23T14:48:43.274Z,92
2016-11-23T14:53:47.371Z,75
2016-11-23T14:58:52.272Z,53
2016-11-23T15:03:56.721Z,39
2016-11-23T15:09:01.165Z,27
2016-11-23T15:14:05.928Z,18
2016-11-23T15:19:10.312Z,11
2016-11-23T15:24:14.435Z,7
2016-11-23T15:29:18.567Z,4
2016-11-23T15:34:23.313Z,2
2016-11-23T15:44:46.769Z,0
2016-11-23T15:49:50.872Z,0
2016-11-23T15:54:54.973Z,0
2016-11-23T15:59:59.612Z,0
2016-11-23T16:05:03.679Z,0
2016-11-23T16:10:08.121Z,0
2016-11-23T16:15:12.569Z,0
2016-11-23T16:20:17.011Z,0
2016-11-23T16:25:21.449Z,0
2016-11-23T16:30:25.546Z,0
2016-11-23T16:35:29.973Z,0
2016-11-23T16:40:34.478Z,0
2016-11-23T16:45:38.612Z,0
2016-11-23T16:50:42.709Z,0
2016-11-23T16:55:47.140Z,1
2016-11-23T17:00:51.574Z,1
2016-11-23T17:05:55.670Z,1
2016-11-23T17:10:59.784Z,1
2016-11-23T17:16:04.101Z,1
2016-11-23T17:21:08.533Z,1
2016-11-23T17:26:12.636Z,1
2016-11-23T17:31:16.750Z,1
2016-11-23T17:36:20.861Z,1
2016-11-23T17:41:25.287Z,1
2016-11-23T17:46:29.378Z,1
2016-11-23T17:51:33.475Z,1
2016-11-23T17:56:37.901Z,1
2016-11-23T18:01:41.998Z,1
2016-11-23T18:06:46.428Z,1
2016-11-23T18:11:50.858Z,0
2016-11-23T18:16:55.318Z,0
2016-11-23T18:21:59.411Z,0
2016-11-23T18:27:04.172Z,0
2016-11-23T18:32:08.287Z,0
2016-11-23T18:37:12.709Z,0
2016-11-23T18:42:16.802Z,0
2016-11-23T18:47:21.223Z,0
2016-11-23T18:52:26.327Z,0
2016-11-23T18:57:30.754Z,1
2016-11-23T19:02:34.846Z,0
2016-11-23T19:07:38.940Z,1
2016-11-23T19:12:43.374Z,1
2016-11-23T19:17:47.468Z,1
2016-11-23T19:22:51.562Z,1
2016-11-23T19:27:55.993Z,1
2016-11-23T19:33:00.087Z,1
2016-11-23T19:38:04.182Z,1
2016-11-23T19:43:08.267Z,1
2016-11-23T19:48:12.361Z,1
2016-11-23T19:53:16.793Z,1
2016-11-23T19:58:20.884Z,1
2016-11-23T20:03:25.655Z,1
2016-11-23T20:08:30.653Z,1
2016-11-23T20:13:34.745Z,1
2016-11-23T20:18:39.183Z,1
2016-11-23T20:23:43.280Z,1
2016-11-23T20:28:47.376Z,1
2016-11-23T20:33:51.804Z,1
2016-11-23T20:38:55.899Z,1
2016-11-23T20:43:59.991Z,1
2016-11-23T20:49:04.793Z,1
2016-11-23T20:54:09.411Z,1
2016-11-23T20:59:13.521Z,1
2016-11-23T21:04:18.645Z,1
2016-11-23T21:09:22.782Z,1
2016-11-23T21:14:26.963Z,1
2016-11-23T21:19:31.398Z,1
2016-11-23T21:24:35.502Z,0
2016-11-23T21:29:40.603Z,0
2016-11-23T21:34:44.698Z,0
2016-11-23T21:39:49.008Z,0
2016-11-23T21:44:53.126Z,0
2016-11-23T21:49:57.421Z,0
2016-11-23T21:55:01.521Z,0
2016-11-23T22:00:06.635Z,0
2016-11-23T22:05:11.068Z,0
2016-11-23T22:10:15.157Z,0
2016-11-23T22:15:19.281Z,0
2016-11-23T22:20:23.378Z,0
2016-11-23T22:25:27.469Z,0
2016-11-23T22:30:32.226Z,0
2016-11-23T22:35:36.657Z,0
2016-11-23T22:40:40.749Z,0
2016-11-23T22:45:44.853Z,0
2016-11-23T22:50:49.281Z,0
2016-11-23T22:55:53.374Z,0
2016-11-23T23:00:57.468Z,0
2016-11-23T23:06:01.557Z,0
2016-11-23T23:11:05.655Z,0
2016-11-23T23:16:09.746Z,0
2016-11-23T23:21:13.848Z,0
2016-11-23T23:26:17.940Z,0
2016-11-23T23:31:22.699Z,0
2016-11-23T23:36:26.793Z,0
2016-11-23T23:41:31.234Z,0
2016-11-23T23:46:35.323Z,0
2016-11-23T23:51:39.418Z,0
2016-11-23T23:56:43.516Z,0
